This is the latest recevied weather packets stored in our database for station/object IR4UCA. If no packets are shown the sender has not sent any weather packets the latest 10 day(s).
| Time | Temp. | Humidity | Pressure | Rain* | Wind** | Luminosity | Snow |
|---|---|---|---|---|---|---|---|
| 1778014785 | 16.67° C | 89% | 1012.6 hPa | 0 mm | - | - | - |
| 1778014184 | 16.67° C | 89% | 1012.6 hPa | 0 mm | - | - | - |
| 1778013583 | 16.67° C | 89% | 1012.6 hPa | 0 mm | - | - | - |
| 1778012984 | 16.67° C | 88% | 1012.6 hPa | 0 mm | - | - | - |
| 1778012384 | 17.22° C | 88% | 1012.4 hPa | 0 mm | - | - | - |
| 1778011783 | 17.22° C | 88% | 1012.4 hPa | 0 mm | - | - | - |
| 1778010583 | 17.78° C | 87% | 1012.3 hPa | 0 mm | - | - | - |
| 1778009983 | 17.78° C | 86% | 1012.1 hPa | 0 mm | - | - | - |
| 1778009384 | 18.33° C | 85% | 1011.9 hPa | 0 mm | - | - | - |
| 1778008183 | 18.33° C | 84% | 1011.8 hPa | 0 mm | - | - | - |
| 1778007585 | 18.33° C | 83% | 1011.7 hPa | 0 mm | - | - | - |
| 1778006983 | 18.33° C | 83% | 1011.6 hPa | 0 mm | - | - | - |
| 1778006383 | 18.89° C | 83% | 1011.6 hPa | 0 mm | - | - | - |
| 1778005785 | 18.89° C | 83% | 1011.5 hPa | 0 mm | - | - | - |
| 1778005184 | 18.89° C | 84% | 1011.5 hPa | 0 mm | - | - | - |
| 1778004584 | 18.89° C | 83% | 1011.5 hPa | 0 mm | - | - | - |
| 1778003984 | 18.89° C | 82% | 1011.5 hPa | 0 mm | - | - | - |
| 1778002785 | 19.44° C | 82% | 1011.3 hPa | 0 mm | - | - | - |
| 1778002186 | 19.44° C | 82% | 1011.4 hPa | 0 mm | - | - | - |
| 1778001584 | 20° C | 81% | 1011.3 hPa | 0 mm | - | - | - |
| 1778000385 | 19.44° C | 83% | 1011.4 hPa | 0 mm | - | - | - |
| 1777999784 | 19.44° C | 83% | 1011.4 hPa | 0 mm | - | - | - |
| 1777999185 | 19.44° C | 83% | 1011.2 hPa | 0 mm | - | - | - |
| 1777998584 | 19.44° C | 84% | 1011.3 hPa | 0 mm | - | - | - |
| 1777997984 | 19.44° C | 83% | 1011.4 hPa | 0 mm | - | - | - |
* Rain latest hour (hover to see other rain measurements)
** Current wind speed in m/s (hover to see current wind gust speed)